Time;durP1;ratioP1;P1;durP2;ratioP2;P2;SDS_P1;SDS_P2;PMS_P1;PMS_P2;Temp;Humidity;BMP_temperature;BMP_pressure;BME280_temperature;BME280_humidity;BME280_pressure;Samples;Min_cycle;Max_cycle;Signal;HPM_P1;HPM_P2
2022/08/08 16:41:46;;;;;;;3.15;2.80;;;;;;;33.86;36.71;100725.28;4736168;30;20063;-88
2022/08/08 16:44:22;;;;;;;4.03;2.78;;;;;;;33.83;36.70;100725.38;4752131;30;20526;-86
2022/08/08 16:47:20;;;;;;;3.30;3.05;;;;;;;33.82;37.60;100723.78;4738315;30;20052;-89
2022/08/08 16:50:14;;;;;;;3.58;3.03;;;;;;;33.78;37.70;100721.03;4760526;30;20036;-86
2022/08/08 16:52:48;;;;;;;3.17;2.88;;;;;;;33.95;37.54;100724.69;4765030;30;20063;-78
2022/08/08 16:55:37;;;;;;;2.90;2.70;;;;;;;33.85;37.30;100728.56;4750164;30;20040;-78
2022/08/08 16:58:24;;;;;;;3.10;2.80;;;;;;;34.10;35.75;100719.50;4757572;30;20048;-79
2022/08/08 17:01:01;;;;;;;3.40;3.10;;;;;;;34.03;36.94;100722.50;4756324;30;20056;-78
2022/08/08 17:03:32;;;;;;;3.15;2.80;;;;;;;34.02;37.07;100713.16;4751211;30;20052;-79
2022/08/08 17:06:30;;;;;;;7.70;3.30;;;;;;;34.00;36.78;100706.31;4750495;30;20472;-81
2022/08/08 17:09:13;;;;;;;3.53;2.55;;;;;;;34.01;36.85;100716.47;4751054;30;20412;-77
2022/08/08 17:11:49;;;;;;;4.00;3.00;;;;;;;34.04;36.87;100719.25;4774988;30;20067;-84
2022/08/08 17:14:22;;;;;;;3.45;2.95;;;;;;;33.94;37.08;100723.09;4753737;30;20071;-79
2022/08/08 17:16:55;;;;;;;4.97;2.88;;;;;;;33.97;37.12;100727.91;4754967;30;20044;-78
2022/08/08 17:19:29;;;;;;;3.90;3.33;;;;;;;33.86;37.40;100724.50;4744530;30;20056;-79
2022/08/08 17:22:09;;;;;;;3.45;2.95;;;;;;;33.70;37.01;100720.38;4747451;30;20480;-81
2022/08/08 17:24:39;;;;;;;3.00;2.80;;;;;;;33.71;37.54;100727.63;4748316;30;20055;-87
2022/08/08 17:27:07;;;;;;;6.13;3.03;;;;;;;33.68;37.92;100728.53;4748610;30;20417;-87
2022/08/08 17:29:37;;;;;;;3.53;2.63;;;;;;;33.64;38.15;100724.97;4745816;30;20492;-81
2022/08/08 17:32:22;;;;;;;4.95;3.58;;;;;;;33.72;37.87;100736.97;4744034;30;20071;-82
2022/08/08 17:35:09;;;;;;;4.63;2.85;;;;;;;33.63;37.91;100735.50;4741591;30;20055;-81
2022/08/08 17:37:57;;;;;;;3.40;2.92;;;;;;;33.63;37.57;100740.38;4749782;30;20048;-82
2022/08/08 17:40:25;;;;;;;3.33;2.83;;;;;;;33.63;37.66;100743.22;4750419;30;20063;-82
2022/08/08 17:42:53;;;;;;;3.10;2.88;;;;;;;33.59;37.47;100748.16;4751695;30;20056;-82
2022/08/08 17:45:21;;;;;;;3.63;2.80;;;;;;;33.68;37.74;100756.09;4752089;30;20056;-83
2022/08/08 17:47:52;;;;;;;3.38;3.08;;;;;;;33.69;36.95;100757.69;4735909;30;20067;-82
2022/08/08 17:50:22;;;;;;;3.10;2.80;;;;;;;33.80;37.63;100752.59;4764618;30;20401;-83
2022/08/08 17:52:52;;;;;;;2.88;2.67;;;;;;;33.88;37.88;100765.41;4748643;30;20052;-82
2022/08/08 17:55:24;;;;;;;3.22;2.83;;;;;;;33.66;37.34;100773.53;4736799;30;20146;-83
2022/08/08 17:58:15;;;;;;;5.28;2.95;;;;;;;33.63;38.09;100774.44;4763741;30;20059;-82
2022/08/08 18:00:44;;;;;;;5.57;3.13;;;;;;;33.42;37.66;100767.91;4733954;30;20095;-82
2022/08/08 18:03:23;;;;;;;3.30;3.00;;;;;;;33.42;37.55;100770.75;4741052;30;20076;-82
2022/08/08 18:05:54;;;;;;;3.95;3.35;;;;;;;33.35;38.00;100779.41;4741955;30;20404;-82
2022/08/08 18:08:22;;;;;;;3.35;3.08;;;;;;;33.29;37.85;100779.13;4733640;30;20060;-80
2022/08/08 18:11:14;;;;;;;8.80;3.40;;;;;;;33.22;39.31;100788.53;4747605;30;20048;-82
2022/08/08 18:13:46;;;;;;;4.78;3.25;;;;;;;33.22;38.21;100796.25;4733863;30;20052;-82
2022/08/08 18:16:15;;;;;;;3.67;3.35;;;;;;;33.14;38.28;100791.94;4734960;30;20052;-82
2022/08/08 18:18:51;;;;;;;5.85;3.03;;;;;;;33.13;39.04;100802.47;4758736;30;20056;-82
2022/08/08 18:21:28;;;;;;;4.13;3.20;;;;;;;32.97;38.65;100803.97;4750197;30;20059;-82
2022/08/08 18:24:19;;;;;;;5.03;3.42;;;;;;;33.14;39.22;100812.59;4734777;30;20063;-82
2022/08/08 18:26:53;;;;;;;4.43;3.67;;;;;;;33.00;39.71;100815.66;4750144;30;20080;-81
2022/08/08 18:29:35;;;;;;;4.25;3.85;;;;;;;32.82;39.24;100811.06;4746058;30;20059;-82
2022/08/08 18:32:11;;;;;;;3.60;3.30;;;;;;;32.76;40.19;100812.78;4747687;30;20067;-83
2022/08/08 18:34:43;;;;;;;7.97;3.60;;;;;;;32.77;39.80;100814.38;4741413;30;20519;-82
2022/08/08 18:37:17;;;;;;;3.60;3.30;;;;;;;32.84;40.15;100823.56;4748560;30;20044;-82
2022/08/08 18:40:02;;;;;;;4.63;3.35;;;;;;;32.93;40.22;100823.03;4744331;30;20720;-83
2022/08/08 18:42:35;;;;;;;4.60;2.88;;;;;;;32.66;39.89;100832.38;4744128;30;20055;-83
2022/08/08 18:45:14;;;;;;;4.05;3.50;;;;;;;32.68;40.36;100835.56;4750478;30;20060;-82
2022/08/08 18:48:05;;;;;;;4.20;3.00;;;;;;;32.85;40.38;100838.56;4746146;30;20677;-84
2022/08/08 18:50:46;;;;;;;3.65;2.97;;;;;;;32.92;40.77;100848.97;4759603;30;20597;-83
2022/08/08 18:53:26;;;;;;;3.47;3.03;;;;;;;32.94;40.58;100858.63;4763051;30;20049;-81
2022/08/08 18:56:30;;;;;;;4.20;3.30;;;;;;;32.82;41.36;100860.06;4755099;30;20491;-82
2022/08/08 18:59:00;;;;;;;3.72;3.10;;;;;;;32.67;40.95;100850.97;4768860;30;20059;-83
2022/08/08 19:01:29;;;;;;;3.75;3.45;;;;;;;32.54;41.45;100855.63;4768884;30;20078;-83
2022/08/08 19:04:17;;;;;;;4.25;3.58;;;;;;;32.39;40.53;100860.63;4753225;30;20040;-83
2022/08/08 19:06:45;;;;;;;4.93;3.50;;;;;;;32.37;41.11;100863.09;4770360;30;20416;-83
2022/08/08 19:09:16;;;;;;;3.45;3.15;;;;;;;32.35;41.18;100866.34;4754947;30;20067;-83
2022/08/08 19:11:49;;;;;;;4.05;3.60;;;;;;;32.58;41.81;100868.50;4757819;30;20047;-82
2022/08/08 19:14:21;;;;;;;4.18;3.25;;;;;;;32.47;41.04;100867.03;4754505;30;20059;-83
2022/08/08 19:16:49;;;;;;;4.28;2.92;;;;;;;32.24;40.90;100880.66;4754446;30;20515;-83
2022/08/08 19:19:17;;;;;;;6.07;3.35;;;;;;;32.22;41.39;100871.78;4749739;30;20060;-82
2022/08/08 19:21:46;;;;;;;3.28;2.95;;;;;;;32.43;41.32;100886.91;4747286;30;20404;-83
2022/08/08 19:24:17;;;;;;;4.53;3.13;;;;;;;32.20;41.70;100882.72;4745884;30;20059;-83
2022/08/08 19:27:06;;;;;;;6.30;3.55;;;;;;;32.12;41.74;100887.69;4760320;30;20056;-83
2022/08/08 19:29:35;;;;;;;3.45;3.15;;;;;;;32.06;41.63;100888.56;4744947;30;20059;-82
2022/08/08 19:32:12;;;;;;;3.95;3.53;;;;;;;32.16;41.44;100884.81;4745506;30;20048;-80
2022/08/08 19:34:48;;;;;;;4.20;3.78;;;;;;;32.21;41.23;100895.69;4731441;30;20516;-80
2022/08/08 19:37:18;;;;;;;4.10;3.28;;;;;;;32.25;41.58;100887.13;4761017;30;20052;-81
2022/08/08 19:40:09;;;;;;;4.60;3.20;;;;;;;32.15;41.76;100894.50;4724855;30;20049;-80
2022/08/08 19:42:44;;;;;;;3.50;3.20;;;;;;;32.06;42.54;100903.53;4733287;30;20063;-79
2022/08/08 19:45:16;;;;;;;3.50;3.20;;;;;;;32.18;42.00;100899.34;4760271;30;20055;-82
2022/08/08 19:48:04;;;;;;;3.45;3.15;;;;;;;32.15;42.57;100912.31;4749313;30;20044;-80
2022/08/08 19:50:35;;;;;;;4.72;3.33;;;;;;;32.31;42.34;100908.88;4749072;30;20508;-80
2022/08/08 19:53:05;;;;;;;5.07;3.05;;;;;;;32.11;42.01;100917.19;4745724;30;20052;-80
2022/08/08 19:55:54;;;;;;;3.65;3.20;;;;;;;31.98;42.29;100916.13;4751964;30;20040;-77
2022/08/08 19:58:23;;;;;;;3.63;3.15;;;;;;;31.73;42.77;100915.19;4745401;30;20059;-77
2022/08/08 20:00:56;;;;;;;3.50;3.17;;;;;;;31.57;43.12;100898.75;4752941;30;20409;-76
2022/08/08 20:03:30;;;;;;;3.95;3.55;;;;;;;31.33;43.62;100909.84;4766443;30;20060;-77
2022/08/08 20:06:19;;;;;;;5.22;3.28;;;;;;;31.15;44.17;100914.81;4755572;30;20056;-77
2022/08/08 20:08:47;;;;;;;4.18;3.67;;;;;;;31.05;44.47;100906.03;4745695;30;20064;-77
2022/08/08 20:11:15;;;;;;;4.43;3.65;;;;;;;30.89;44.95;100915.00;4752827;30;20053;-77
2022/08/08 20:13:46;;;;;;;4.97;3.60;;;;;;;30.69;45.64;100920.38;4750182;30;20048;-77
2022/08/08 20:17:01;;;;;;;3.50;3.20;;;;;;;30.62;45.67;100917.56;4751469;30;20503;-77
2022/08/08 20:19:32;;;;;;;3.85;3.45;;;;;;;30.63;45.05;100930.47;4749175;30;20479;-76
2022/08/08 20:22:11;;;;;;;6.72;4.13;;;;;;;30.61;45.63;100927.25;4752447;30;20418;-76
2022/08/08 20:24:59;;;;;;;3.75;3.35;;;;;;;30.46;45.48;100918.84;4756435;30;20052;-77
2022/08/08 20:27:28;;;;;;;4.65;3.45;;;;;;;30.43;45.42;100917.66;4752790;30;20063;-76
2022/08/08 20:30:17;;;;;;;7.43;3.80;;;;;;;30.36;45.96;100914.06;4752199;30;20059;-75
2022/08/08 20:33:05;;;;;;;5.15;3.47;;;;;;;30.28;46.55;100914.09;4751433;30;20044;-75
2022/08/08 20:35:42;;;;;;;5.18;3.45;;;;;;;30.27;46.15;100904.03;4750031;30;20060;-75
2022/08/08 20:38:27;;;;;;;3.88;3.42;;;;;;;30.22;46.07;100907.25;4753930;30;20048;-75
2022/08/08 20:41:01;;;;;;;4.20;3.28;;;;;;;30.24;46.35;100915.31;4745225;30;20052;-76
2022/08/08 20:43:39;;;;;;;4.75;3.78;;;;;;;30.08;45.99;100916.53;4751777;30;20408;-76
2022/08/08 20:46:15;;;;;;;4.22;3.83;;;;;;;30.18;45.63;100912.09;4747903;30;20045;-75
2022/08/08 20:48:49;;;;;;;4.90;4.13;;;;;;;30.07;46.96;100917.75;4742442;30;20410;-76
2022/08/08 20:51:18;;;;;;;4.47;4.07;;;;;;;29.93;47.36;100917.78;4745512;30;20052;-76
2022/08/08 20:53:49;;;;;;;4.15;3.75;;;;;;;30.01;46.28;100925.81;4752015;30;20420;-76
2022/08/08 20:56:30;;;;;;;4.20;3.53;;;;;;;29.97;46.19;100938.34;4751319;30;20056;-75
2022/08/08 20:59:04;;;;;;;7.70;3.90;;;;;;;29.95;46.76;100933.09;4752824;30;20083;-75
2022/08/08 21:01:36;;;;;;;3.92;3.53;;;;;;;29.93;46.66;100932.69;4764497;30;20052;-76
2022/08/08 21:04:24;;;;;;;4.43;3.78;;;;;;;29.94;46.20;100937.13;4751937;30;20503;-77
2022/08/08 21:06:55;;;;;;;4.00;3.60;;;;;;;29.90;46.80;100947.59;4752842;30;20055;-76
2022/08/08 21:09:24;;;;;;;4.35;3.90;;;;;;;29.80;48.89;100934.34;4752394;30;20063;-75
2022/08/08 21:12:12;;;;;;;6.22;4.82;;;;;;;29.80;48.68;100942.81;4764989;30;20056;-76
2022/08/08 21:14:42;;;;;;;5.15;4.47;;;;;;;29.82;48.99;100946.03;4751538;30;20056;-75
2022/08/08 21:17:15;;;;;;;5.32;4.00;;;;;;;29.72;49.54;100945.63;4752286;30;20353;-76
2022/08/08 21:19:48;;;;;;;4.45;3.80;;;;;;;29.64;50.97;100942.03;4750958;30;20060;-76
2022/08/08 21:22:26;;;;;;;4.03;3.72;;;;;;;29.63;48.66;100946.03;4749783;30;20063;-76
2022/08/08 21:24:56;;;;;;;4.85;4.03;;;;;;;29.63;48.41;100950.88;4753772;30;20067;-76
2022/08/08 21:27:26;;;;;;;4.43;4.00;;;;;;;29.75;48.97;100956.09;4755909;30;20059;-76
2022/08/08 21:30:13;;;;;;;7.53;4.22;;;;;;;29.94;47.65;100954.06;4750631;30;20189;-76
2022/08/08 21:32:47;;;;;;;4.47;4.07;;;;;;;30.00;45.87;100958.06;4746553;30;20071;-76
2022/08/08 21:35:21;;;;;;;4.37;3.83;;;;;;;30.01;43.94;100965.31;4747055;30;20056;-76
2022/08/08 21:38:09;;;;;;;4.78;4.22;;;;;;;29.97;44.12;100961.72;4750059;30;20313;-75
2022/08/08 21:40:46;;;;;;;6.20;4.88;;;;;;;30.04;44.74;100972.16;4751235;30;20501;-75
2022/08/08 21:43:26;;;;;;;5.40;4.50;;;;;;;30.03;44.36;100968.56;4753685;30;20147;-75
2022/08/08 21:46:03;;;;;;;5.15;3.92;;;;;;;30.01;44.47;100973.78;4755303;30;20058;-76
2022/08/08 21:48:51;;;;;;;4.63;4.05;;;;;;;30.09;44.13;100980.25;4750292;30;20056;-76
2022/08/08 21:51:22;;;;;;;4.72;4.25;;;;;;;29.95;44.49;100981.06;4748956;30;20048;-76
2022/08/08 21:54:16;;;;;;;5.55;4.20;;;;;;;29.67;44.12;100991.16;4752830;30;20067;-76
2022/08/08 21:57:05;;;;;;;4.53;4.13;;;;;;;29.99;43.64;101000.78;4750937;30;20055;-76
2022/08/08 21:59:34;;;;;;;5.25;3.92;;;;;;;29.90;43.66;100992.75;4751714;30;20504;-77
2022/08/08 22:02:22;;;;;;;5.28;4.15;;;;;;;29.82;43.00;101000.44;4740480;30;20061;-76
2022/08/08 22:04:52;;;;;;;5.10;4.35;;;;;;;29.65;43.27;101004.84;4740294;30;20060;-76
2022/08/08 22:07:31;;;;;;;6.18;4.65;;;;;;;29.77;42.45;101012.09;4741246;30;20431;-77
2022/08/08 22:10:09;;;;;;;4.82;4.03;;;;;;;29.82;42.51;101006.06;4741098;30;20052;-77
2022/08/08 22:12:57;;;;;;;4.10;3.70;;;;;;;29.98;42.86;101016.13;4745675;30;20059;-77
2022/08/08 22:15:50;;;;;;;5.93;4.32;;;;;;;29.90;43.17;101018.94;4741714;30;20055;-76
2022/08/08 22:18:28;;;;;;;4.65;4.07;;;;;;;29.89;43.28;101024.97;4748728;30;20051;-76
2022/08/08 22:21:03;;;;;;;6.10;4.03;;;;;;;29.88;42.44;101024.19;4741723;30;20416;-76
2022/08/08 22:23:45;;;;;;;4.25;3.83;;;;;;;29.98;43.39;101024.56;4741640;30;20057;-76
2022/08/08 22:26:23;;;;;;;4.95;4.28;;;;;;;29.97;42.59;101025.78;4742045;30;20059;-76
2022/08/08 22:29:01;;;;;;;4.30;3.83;;;;;;;29.91;42.65;101025.41;4744206;30;20063;-76
2022/08/08 22:31:49;;;;;;;8.93;4.43;;;;;;;29.90;42.56;101024.59;4748061;30;20047;-76
2022/08/08 22:34:34;;;;;;;4.38;3.92;;;;;;;29.69;42.01;101039.50;4741662;30;20060;-77
2022/08/08 22:37:07;;;;;;;5.75;3.40;;;;;;;29.37;41.89;101028.94;4748521;30;20047;-76
2022/08/08 22:39:54;;;;;;;5.53;3.67;;;;;;;29.49;41.86;101027.78;4751598;30;20056;-75
2022/08/08 22:42:30;;;;;;;5.30;3.65;;;;;;;29.53;42.19;101027.78;4745440;30;20051;-75
2022/08/08 22:45:06;;;;;;;4.47;3.60;;;;;;;29.44;42.83;101033.78;4742082;30;20053;-75
2022/08/08 22:47:40;;;;;;;4.40;3.63;;;;;;;29.41;41.81;101024.13;4744575;30;20056;-75
2022/08/08 22:50:18;;;;;;;4.25;3.85;;;;;;;29.42;43.00;101028.56;4744490;30;20064;-75
2022/08/08 22:52:59;;;;;;;5.88;3.83;;;;;;;29.40;42.64;101030.97;4751429;30;20056;-76
2022/08/08 22:55:47;;;;;;;4.93;4.13;;;;;;;29.34;42.06;101029.75;4751361;30;20056;-76
2022/08/08 22:58:29;;;;;;;4.15;3.75;;;;;;;29.33;42.81;101028.16;4751600;30;20059;-75
2022/08/08 23:01:04;;;;;;;5.72;3.97;;;;;;;29.20;42.64;101031.34;4764870;30;20044;-76
2022/08/08 23:03:52;;;;;;;6.00;3.80;;;;;;;29.28;42.34;101025.72;4751689;30;20064;-75
2022/08/08 23:06:24;;;;;;;4.95;3.45;;;;;;;29.24;42.08;101032.13;4751264;30;20415;-76
2022/08/08 23:08:53;;;;;;;5.07;4.03;;;;;;;29.21;42.87;101037.75;4751466;30;20052;-76
2022/08/08 23:11:27;;;;;;;4.65;4.15;;;;;;;29.33;42.34;101036.59;4751161;30;20052;-76
2022/08/08 23:14:17;;;;;;;3.85;3.47;;;;;;;29.21;41.56;101041.41;4751656;30;20064;-77
2022/08/08 23:16:45;;;;;;;4.75;3.72;;;;;;;29.40;41.84;101045.06;4751405;30;20071;-76
2022/08/08 23:19:28;;;;;;;6.28;4.13;;;;;;;29.33;42.83;101039.41;4751258;30;20052;-76
2022/08/08 23:22:03;;;;;;;4.72;3.95;;;;;;;29.26;42.08;101042.22;4750016;30;20453;-76
2022/08/08 23:24:38;;;;;;;5.23;3.83;;;;;;;29.09;42.78;101047.41;4751354;30;20052;-76
2022/08/08 23:27:10;;;;;;;5.90;4.20;;;;;;;29.31;42.78;101044.63;4750808;30;20051;-76
2022/08/08 23:29:58;;;;;;;4.30;3.90;;;;;;;29.15;42.06;101051.44;4750928;30;20068;-76
2022/08/08 23:32:26;;;;;;;4.18;3.67;;;;;;;28.97;41.70;101051.38;4751375;30;20147;-77
2022/08/08 23:34:54;;;;;;;3.75;3.40;;;;;;;29.01;42.42;101046.56;4751083;30;20060;-76
2022/08/08 23:37:26;;;;;;;3.92;3.53;;;;;;;29.05;41.11;101055.03;4751192;30;20079;-77
2022/08/08 23:40:15;;;;;;;3.85;3.30;;;;;;;29.03;40.67;101052.59;4750704;30;20071;-76
2022/08/08 23:42:48;;;;;;;4.63;3.50;;;;;;;29.02;41.74;101053.81;4751596;30;20056;-76
2022/08/08 23:45:18;;;;;;;4.28;3.40;;;;;;;28.86;40.97;101056.13;4751051;30;20052;-77
2022/08/08 23:48:06;;;;;;;4.97;3.50;;;;;;;28.91;40.58;101050.97;4744520;30;20061;-77
2022/08/08 23:50:53;;;;;;;6.45;3.58;;;;;;;28.96;40.26;101044.94;4748029;30;20087;-77
2022/08/08 23:53:24;;;;;;;3.72;3.38;;;;;;;29.05;39.57;101050.22;4751002;30;20143;-76
2022/08/08 23:56:12;;;;;;;4.53;3.30;;;;;;;29.04;40.53;101051.44;4751142;30;20067;-77
2022/08/08 23:58:53;;;;;;;5.88;3.88;;;;;;;29.14;39.93;101046.22;4751000;30;20119;-76
